Time;durP1;ratioP1;P1;durP2;ratioP2;P2;SDS_P1;SDS_P2;PMS_P1;PMS_P2;Temp;Humidity;BMP_temperature;BMP_pressure;BME280_temperature;BME280_humidity;BME280_pressure;Samples;Min_cycle;Max_cycle;Signal;HPM_P1;HPM_P2
2023/07/09 00:01:09;;;;;;;6.77;4.23;;;20.30;99.90;;;;;;490336;242;28800;-79
2023/07/09 00:03:10;;;;;;;5.40;3.80;;;20.30;99.90;;;;;;490293;242;29417;-80
2023/07/09 00:05:12;;;;;;;6.67;4.17;;;20.30;99.90;;;;;;490362;242;29485;-80
2023/07/09 00:07:13;;;;;;;6.60;4.07;;;20.30;99.90;;;;;;490366;241;29418;-79
2023/07/09 00:09:14;;;;;;;6.30;4.20;;;20.30;99.90;;;;;;490344;242;29446;-79
2023/07/09 00:11:15;;;;;;;7.73;4.60;;;20.20;99.90;;;;;;490314;242;28816;-79
2023/07/09 00:13:16;;;;;;;5.57;4.37;;;20.20;99.90;;;;;;490324;242;28933;-79
2023/07/09 00:15:18;;;;;;;6.80;4.47;;;20.20;99.90;;;;;;490355;242;28829;-80
2023/07/09 00:17:19;;;;;;;4.27;3.87;;;20.20;99.90;;;;;;490378;242;28808;-79
2023/07/09 00:19:20;;;;;;;5.20;4.20;;;20.20;99.90;;;;;;490367;242;28825;-79
2023/07/09 00:21:21;;;;;;;4.87;4.10;;;20.20;99.90;;;;;;490331;242;28795;-79
2023/07/09 00:23:23;;;;;;;4.93;3.93;;;20.20;99.90;;;;;;490336;242;28970;-80
2023/07/09 00:25:24;;;;;;;4.90;4.00;;;20.20;99.90;;;;;;490340;242;28825;-79
2023/07/09 00:27:25;;;;;;;8.10;4.80;;;20.20;99.90;;;;;;490339;242;28795;-79
2023/07/09 00:29:27;;;;;;;5.47;4.17;;;20.20;99.90;;;;;;490355;242;29399;-80
2023/07/09 00:31:28;;;;;;;6.33;3.93;;;20.20;99.90;;;;;;490343;242;29275;-79
2023/07/09 00:33:31;;;;;;;5.17;3.97;;;20.20;99.90;;;;;;490347;242;29427;-78
2023/07/09 00:35:30;;;;;;;5.37;3.67;;;20.10;99.90;;;;;;490250;242;28795;-80
2023/07/09 00:37:32;;;;;;;5.20;4.70;;;20.10;99.90;;;;;;490363;241;28889;-79
2023/07/09 00:39:33;;;;;;;4.77;4.27;;;20.00;99.90;;;;;;490401;242;28927;-79
2023/07/09 00:41:34;;;;;;;4.67;4.10;;;20.00;99.90;;;;;;490392;242;28875;-79
2023/07/09 00:43:35;;;;;;;5.70;3.90;;;20.00;99.90;;;;;;490294;242;28872;-79
2023/07/09 00:45:37;;;;;;;5.80;4.73;;;20.00;99.90;;;;;;490356;242;28814;-79
2023/07/09 00:47:42;;;;;;;7.37;4.40;;;19.90;99.90;;;;;;490386;242;28916;-79
2023/07/09 00:49:46;;;;;;;7.07;4.63;;;19.90;99.90;;;;;;490109;242;28870;-79
2023/07/09 00:51:45;;;;;;;6.33;4.60;;;19.90;99.90;;;;;;490105;242;28881;-79
2023/07/09 00:53:47;;;;;;;5.47;4.20;;;19.90;99.90;;;;;;490297;242;28824;-79
2023/07/09 00:55:49;;;;;;;4.30;3.90;;;19.80;99.90;;;;;;490376;242;29246;-80
2023/07/09 00:57:56;;;;;;;5.50;4.30;;;19.70;99.90;;;;;;482909;241;29436;-80
2023/07/09 00:59:51;;;;;;;5.50;4.30;;;19.70;99.90;;;;;;481853;246;29952;-79
2023/07/09 01:01:52;;;;;;;5.27;4.30;;;19.70;99.90;;;;;;482261;246;28723;-79
2023/07/09 01:03:57;;;;;;;5.00;3.90;;;19.70;99.90;;;;;;482244;246;28834;-79
2023/07/09 01:05:55;;;;;;;6.43;3.67;;;19.80;99.90;;;;;;482040;246;28794;-79
2023/07/09 01:07:58;;;;;;;4.30;3.63;;;19.80;99.90;;;;;;489371;238;28838;-79
2023/07/09 01:09:57;;;;;;;5.93;4.10;;;19.70;99.90;;;;;;492277;241;28887;-79
2023/07/09 01:12:01;;;;;;;5.13;4.50;;;19.80;99.90;;;;;;492335;241;28814;-79
2023/07/09 01:14:00;;;;;;;6.00;4.93;;;19.70;99.90;;;;;;492195;241;28925;-80
2023/07/09 01:16:01;;;;;;;5.83;4.27;;;19.70;99.90;;;;;;492315;241;28818;-79
2023/07/09 01:18:02;;;;;;;8.30;4.10;;;19.70;99.90;;;;;;492334;241;28835;-79
2023/07/09 01:20:04;;;;;;;5.93;3.70;;;19.70;99.90;;;;;;492344;241;30246;-79
2023/07/09 01:22:05;;;;;;;5.90;4.00;;;19.80;99.90;;;;;;492376;241;29260;-79
2023/07/09 01:24:07;;;;;;;5.73;4.10;;;19.70;99.90;;;;;;492369;241;29338;-79
2023/07/09 01:26:07;;;;;;;6.30;4.37;;;19.80;99.90;;;;;;492307;241;28952;-79
2023/07/09 01:28:09;;;;;;;5.33;4.57;;;19.80;99.90;;;;;;492332;241;28827;-79
2023/07/09 01:30:10;;;;;;;6.30;4.30;;;19.80;99.90;;;;;;492355;241;28865;-79
2023/07/09 01:32:11;;;;;;;7.13;5.10;;;19.70;99.90;;;;;;492357;241;28871;-79
2023/07/09 01:34:15;;;;;;;6.33;4.00;;;19.50;99.90;;;;;;492345;241;28836;-79
2023/07/09 01:36:14;;;;;;;5.80;4.50;;;19.50;99.90;;;;;;492186;241;28895;-79
2023/07/09 01:38:16;;;;;;;9.83;4.80;;;19.30;99.90;;;;;;492343;240;28878;-79
2023/07/09 01:40:16;;;;;;;5.03;4.13;;;19.30;99.90;;;;;;492270;241;28819;-79
2023/07/09 01:42:17;;;;;;;6.80;4.60;;;19.30;99.90;;;;;;492336;241;28851;-79
2023/07/09 01:44:19;;;;;;;5.90;4.37;;;19.30;99.90;;;;;;492366;241;29332;-79
2023/07/09 01:46:21;;;;;;;8.17;4.77;;;19.30;99.90;;;;;;492334;241;29324;-79
2023/07/09 01:48:24;;;;;;;7.00;4.47;;;19.30;99.90;;;;;;492281;241;29324;-79
2023/07/09 01:50:24;;;;;;;5.70;4.47;;;19.30;99.90;;;;;;492168;241;30195;-80
2023/07/09 01:52:24;;;;;;;5.70;4.80;;;19.40;99.90;;;;;;492262;241;28821;-80
2023/07/09 01:54:25;;;;;;;8.30;4.70;;;19.40;99.90;;;;;;492342;241;28890;-79
2023/07/09 01:56:26;;;;;;;7.13;4.90;;;19.40;99.90;;;;;;492327;241;28815;-80
2023/07/09 01:58:31;;;;;;;6.63;4.33;;;19.40;99.90;;;;;;492321;241;28904;-79
2023/07/09 02:00:29;;;;;;;5.23;4.50;;;19.40;99.90;;;;;;492055;241;28896;-79
2023/07/09 02:02:31;;;;;;;5.50;4.20;;;19.30;99.90;;;;;;492347;241;28907;-79
2023/07/09 02:04:31;;;;;;;7.23;4.80;;;19.30;99.90;;;;;;492241;241;28925;-80
2023/07/09 02:06:32;;;;;;;4.53;4.07;;;19.20;99.90;;;;;;492317;241;28807;-78
2023/07/09 02:08:34;;;;;;;5.77;4.50;;;19.10;99.90;;;;;;492327;241;29312;-79
2023/07/09 02:10:35;;;;;;;5.37;4.30;;;19.10;99.90;;;;;;492301;241;30051;-79
2023/07/09 02:12:36;;;;;;;5.07;4.40;;;19.10;99.90;;;;;;492328;241;29279;-79
2023/07/09 02:14:37;;;;;;;8.40;4.40;;;19.00;99.90;;;;;;492359;241;29351;-79
2023/07/09 02:16:39;;;;;;;9.00;4.80;;;19.00;99.90;;;;;;492335;241;28799;-78
2023/07/09 02:18:40;;;;;;;7.83;5.20;;;19.00;99.90;;;;;;492314;241;28860;-79
2023/07/09 02:20:41;;;;;;;5.80;4.40;;;19.00;99.90;;;;;;492335;240;28861;-79
2023/07/09 02:22:43;;;;;;;7.10;4.53;;;19.00;99.90;;;;;;492382;241;28800;-79
2023/07/09 02:24:44;;;;;;;6.33;3.93;;;19.00;99.90;;;;;;492333;241;28848;-77
2023/07/09 02:26:45;;;;;;;5.63;4.27;;;18.90;99.90;;;;;;492295;241;28825;-79
2023/07/09 02:28:46;;;;;;;7.50;4.50;;;18.90;99.90;;;;;;492313;241;29219;-79
2023/07/09 02:30:47;;;;;;;5.23;4.10;;;18.90;99.90;;;;;;492322;241;28976;-79
2023/07/09 02:32:49;;;;;;;4.30;3.90;;;18.90;99.90;;;;;;492266;241;29308;-80
2023/07/09 02:34:52;;;;;;;6.40;5.00;;;18.90;99.90;;;;;;492284;241;29356;-79
2023/07/09 02:36:51;;;;;;;4.97;4.47;;;18.90;99.90;;;;;;492065;241;29284;-79
2023/07/09 02:38:52;;;;;;;7.00;4.63;;;19.00;99.90;;;;;;492282;241;29457;-79
2023/07/09 02:40:54;;;;;;;4.90;4.37;;;19.00;99.90;;;;;;492325;241;28898;-79
2023/07/09 02:42:55;;;;;;;6.63;4.90;;;19.00;99.90;;;;;;492342;241;28916;-79
2023/07/09 02:44:56;;;;;;;5.33;4.10;;;19.00;99.90;;;;;;492352;241;28840;-79
2023/07/09 02:46:57;;;;;;;6.13;4.13;;;19.00;99.90;;;;;;492397;241;28801;-79
2023/07/09 02:48:59;;;;;;;7.43;4.70;;;18.90;99.90;;;;;;492442;241;28880;-80
2023/07/09 02:51:00;;;;;;;6.70;4.30;;;18.90;99.90;;;;;;492422;241;28852;-78
2023/07/09 02:53:01;;;;;;;7.10;4.30;;;18.80;99.90;;;;;;492377;241;28810;-79
2023/07/09 02:55:02;;;;;;;6.37;4.77;;;18.80;99.90;;;;;;492373;241;28847;-78
2023/07/09 02:57:04;;;;;;;7.57;4.87;;;18.80;99.90;;;;;;492335;241;28908;-79
2023/07/09 02:59:05;;;;;;;6.03;4.37;;;18.80;99.90;;;;;;492344;241;29289;-79
2023/07/09 03:01:06;;;;;;;5.63;4.50;;;18.90;99.90;;;;;;492350;241;30199;-79
2023/07/09 03:03:07;;;;;;;5.40;4.53;;;18.90;99.90;;;;;;492357;241;29368;-78
2023/07/09 03:05:10;;;;;;;5.30;4.67;;;18.90;99.90;;;;;;492351;241;29336;-79
2023/07/09 03:07:10;;;;;;;5.10;4.17;;;18.80;99.90;;;;;;492254;241;29028;-79
2023/07/09 03:09:11;;;;;;;6.07;4.67;;;18.80;99.90;;;;;;492311;241;28936;-79
2023/07/09 03:11:12;;;;;;;5.40;4.60;;;18.70;99.90;;;;;;492316;241;28874;-79
2023/07/09 03:13:14;;;;;;;6.00;4.63;;;18.70;99.90;;;;;;492333;241;28903;-80
2023/07/09 03:15:15;;;;;;;7.43;4.50;;;18.80;99.90;;;;;;492368;241;28878;-79
2023/07/09 03:17:16;;;;;;;5.47;4.70;;;18.80;99.90;;;;;;492343;241;28941;-79
2023/07/09 03:19:17;;;;;;;6.53;4.37;;;18.70;99.90;;;;;;492312;241;28839;-78
2023/07/09 03:21:19;;;;;;;5.67;4.70;;;18.70;99.90;;;;;;492299;241;28800;-79
2023/07/09 03:23:20;;;;;;;6.03;4.47;;;18.70;99.90;;;;;;492326;241;29392;-80
2023/07/09 03:25:21;;;;;;;7.77;4.90;;;18.60;99.90;;;;;;492352;241;29261;-79
2023/07/09 03:27:22;;;;;;;5.30;4.47;;;18.60;99.90;;;;;;492372;241;29387;-79
2023/07/09 03:29:24;;;;;;;8.00;4.90;;;18.70;99.90;;;;;;492335;241;28856;-79
2023/07/09 03:31:26;;;;;;;9.20;5.60;;;18.60;99.90;;;;;;492305;241;29335;-80
2023/07/09 03:33:27;;;;;;;4.57;4.17;;;18.60;99.90;;;;;;492318;241;29463;-80
2023/07/09 03:35:28;;;;;;;6.97;5.00;;;18.50;99.90;;;;;;492322;241;28844;-79
2023/07/09 03:37:29;;;;;;;5.63;4.47;;;18.50;99.90;;;;;;492352;241;28860;-79
2023/07/09 03:39:31;;;;;;;6.87;4.60;;;18.60;99.90;;;;;;492321;241;28848;-80
2023/07/09 03:41:32;;;;;;;5.67;4.53;;;18.60;99.90;;;;;;492334;241;28873;-79
2023/07/09 03:43:33;;;;;;;5.50;4.47;;;18.50;99.90;;;;;;492340;241;28809;-80
2023/07/09 03:45:34;;;;;;;5.80;5.03;;;18.60;99.90;;;;;;492296;241;28848;-79
2023/07/09 03:47:36;;;;;;;4.90;4.37;;;18.50;99.90;;;;;;492327;241;28961;-79
2023/07/09 03:49:37;;;;;;;5.90;5.30;;;18.50;99.90;;;;;;492354;241;28880;-79
2023/07/09 03:51:38;;;;;;;6.20;4.70;;;18.50;99.90;;;;;;492357;241;28845;-79
2023/07/09 03:53:39;;;;;;;5.43;4.33;;;18.50;99.90;;;;;;492355;241;29363;-79
2023/07/09 03:55:41;;;;;;;6.80;4.70;;;18.50;99.90;;;;;;492347;241;29419;-79
2023/07/09 03:57:42;;;;;;;5.13;4.67;;;18.50;99.90;;;;;;492333;241;29712;-79
2023/07/09 03:59:43;;;;;;;7.30;4.60;;;18.50;99.90;;;;;;492333;241;29309;-79
2023/07/09 04:01:45;;;;;;;11.80;5.07;;;18.50;99.90;;;;;;491932;241;28869;-79
2023/07/09 04:03:46;;;;;;;7.07;4.70;;;18.50;99.90;;;;;;492201;241;28825;-79
2023/07/09 04:05:47;;;;;;;13.73;5.10;;;18.50;99.90;;;;;;492306;241;28857;-79
2023/07/09 04:07:48;;;;;;;5.90;4.90;;;18.50;99.90;;;;;;492303;241;28911;-79
2023/07/09 04:09:49;;;;;;;8.10;4.83;;;18.60;99.90;;;;;;492367;241;28896;-79
2023/07/09 04:11:51;;;;;;;5.43;4.77;;;18.60;99.90;;;;;;492343;241;28884;-79
2023/07/09 04:13:52;;;;;;;9.47;5.63;;;18.60;99.90;;;;;;492350;241;28908;-79
2023/07/09 04:15:53;;;;;;;6.77;5.10;;;18.70;99.90;;;;;;492346;240;29306;-78
2023/07/09 04:17:54;;;;;;;6.50;4.63;;;18.70;99.90;;;;;;492348;241;28896;-79
2023/07/09 04:19:56;;;;;;;6.20;4.67;;;18.70;99.90;;;;;;492345;241;29261;-79
2023/07/09 04:21:57;;;;;;;6.33;4.90;;;18.70;99.90;;;;;;492362;241;29428;-79
2023/07/09 04:23:58;;;;;;;6.00;4.70;;;18.70;99.90;;;;;;492308;241;28828;-79
2023/07/09 04:26:02;;;;;;;5.27;4.53;;;18.80;99.90;;;;;;492327;240;28848;-79
2023/07/09 04:28:01;;;;;;;5.63;4.30;;;18.90;99.90;;;;;;492107;241;28997;-79
2023/07/09 04:30:04;;;;;;;5.67;4.63;;;18.80;99.90;;;;;;492348;241;28864;-79
2023/07/09 04:32:03;;;;;;;6.23;4.90;;;18.90;99.90;;;;;;492159;241;28839;-79
2023/07/09 04:34:04;;;;;;;4.40;3.90;;;18.90;99.90;;;;;;492364;241;28914;-79
2023/07/09 04:36:06;;;;;;;6.40;4.60;;;19.00;99.90;;;;;;492331;241;28840;-79
2023/07/09 04:38:08;;;;;;;7.93;5.10;;;19.10;99.90;;;;;;492309;241;28834;-79
2023/07/09 04:40:10;;;;;;;6.57;4.33;;;19.00;99.90;;;;;;492321;241;28855;-79
2023/07/09 04:42:09;;;;;;;4.93;4.37;;;19.10;99.90;;;;;;492297;241;29397;-79
2023/07/09 04:44:11;;;;;;;5.80;4.57;;;19.10;99.90;;;;;;492291;241;29427;-80
2023/07/09 04:46:12;;;;;;;5.33;4.50;;;19.10;99.90;;;;;;492367;241;29473;-79
2023/07/09 04:48:13;;;;;;;5.53;4.60;;;19.10;99.90;;;;;;492293;241;29110;-79
2023/07/09 04:50:14;;;;;;;7.63;5.40;;;19.20;99.90;;;;;;492378;241;28811;-79
2023/07/09 04:52:16;;;;;;;7.53;4.50;;;19.20;99.90;;;;;;492326;240;28885;-79
2023/07/09 04:54:17;;;;;;;8.73;5.10;;;19.20;99.90;;;;;;492379;241;28888;-79
2023/07/09 04:56:18;;;;;;;8.23;5.43;;;19.30;99.90;;;;;;492367;241;28942;-79
2023/07/09 04:58:19;;;;;;;7.17;4.80;;;19.30;99.90;;;;;;492366;241;28810;-79
2023/07/09 05:00:21;;;;;;;5.03;4.23;;;19.40;99.90;;;;;;492371;241;28959;-79
2023/07/09 05:02:22;;;;;;;5.80;4.13;;;19.40;99.90;;;;;;492342;241;28841;-79
2023/07/09 05:04:23;;;;;;;5.20;4.30;;;19.50;99.90;;;;;;492362;241;28870;-79
2023/07/09 05:06:24;;;;;;;5.80;4.53;;;19.50;99.90;;;;;;492363;241;29392;-79
2023/07/09 05:08:26;;;;;;;8.33;4.70;;;19.50;99.90;;;;;;492367;241;29263;-80
2023/07/09 05:10:27;;;;;;;5.57;4.50;;;19.60;99.90;;;;;;492352;241;29367;-79
2023/07/09 05:12:28;;;;;;;5.40;4.27;;;19.70;99.90;;;;;;492389;241;28853;-79
2023/07/09 05:14:29;;;;;;;5.93;4.47;;;19.70;99.90;;;;;;492385;241;28814;-79
2023/07/09 05:16:31;;;;;;;6.40;4.70;;;19.80;99.90;;;;;;492357;241;28848;-80
2023/07/09 05:18:32;;;;;;;6.03;4.70;;;19.80;99.90;;;;;;492365;241;28800;-79
2023/07/09 05:20:33;;;;;;;4.80;4.03;;;19.90;99.90;;;;;;492340;241;28867;-79
2023/07/09 05:22:34;;;;;;;7.30;4.80;;;19.90;99.90;;;;;;492369;241;28888;-79
2023/07/09 05:24:36;;;;;;;4.77;4.20;;;20.00;99.90;;;;;;492315;241;28820;-78
2023/07/09 05:26:37;;;;;;;5.93;4.50;;;20.00;99.90;;;;;;492317;241;28849;-80
2023/07/09 05:28:38;;;;;;;4.60;4.00;;;20.00;99.90;;;;;;492327;241;28804;-79
2023/07/09 05:30:39;;;;;;;6.20;4.60;;;20.20;99.90;;;;;;492339;241;29413;-80
2023/07/09 05:32:41;;;;;;;5.13;4.37;;;20.20;99.90;;;;;;492356;241;29364;-79
2023/07/09 05:34:42;;;;;;;5.60;4.87;;;20.30;99.90;;;;;;492327;241;29260;-79
2023/07/09 05:36:44;;;;;;;6.90;4.60;;;20.30;99.90;;;;;;492304;241;29415;-80
2023/07/09 05:38:46;;;;;;;4.93;4.43;;;20.40;99.90;;;;;;492314;241;28806;-79
2023/07/09 05:40:46;;;;;;;6.97;5.00;;;20.40;99.90;;;;;;492205;241;28929;-79
2023/07/09 05:42:47;;;;;;;5.63;4.33;;;20.50;99.90;;;;;;492340;241;28847;-79
2023/07/09 05:44:48;;;;;;;5.63;4.70;;;20.50;99.90;;;;;;492324;241;28894;-80
2023/07/09 05:46:49;;;;;;;5.60;4.53;;;20.50;99.90;;;;;;492347;241;28870;-80
2023/07/09 05:48:51;;;;;;;5.93;4.13;;;20.60;99.90;;;;;;492311;241;28950;-79
2023/07/09 05:50:52;;;;;;;5.07;4.30;;;20.60;99.90;;;;;;492324;241;28877;-80
2023/07/09 05:52:53;;;;;;;6.00;4.90;;;20.60;99.90;;;;;;492320;241;28879;-81
2023/07/09 05:54:55;;;;;;;6.20;4.53;;;20.60;99.90;;;;;;492341;241;29287;-80
2023/07/09 05:56:56;;;;;;;4.90;4.13;;;20.60;99.90;;;;;;492328;241;29392;-80
2023/07/09 05:58:57;;;;;;;5.13;4.63;;;20.70;99.90;;;;;;492305;241;29253;-79
2023/07/09 06:00:58;;;;;;;5.73;4.77;;;20.70;99.90;;;;;;492332;241;29381;-79
2023/07/09 06:03:01;;;;;;;7.10;5.17;;;20.80;99.90;;;;;;492340;241;28865;-79
2023/07/09 06:05:01;;;;;;;6.00;4.87;;;21.00;99.90;;;;;;492285;241;28837;-79
2023/07/09 06:07:03;;;;;;;8.73;5.07;;;21.10;99.90;;;;;;492268;241;28933;-80
2023/07/09 06:09:04;;;;;;;7.30;5.20;;;21.20;99.90;;;;;;492257;241;28837;-80
2023/07/09 06:11:05;;;;;;;6.17;5.00;;;21.20;99.90;;;;;;492315;241;28863;-80
2023/07/09 06:13:06;;;;;;;6.67;4.40;;;21.30;99.90;;;;;;492320;241;29343;-80
2023/07/09 06:15:07;;;;;;;8.60;4.70;;;21.40;99.90;;;;;;492345;241;28816;-80
2023/07/09 06:17:08;;;;;;;5.20;4.70;;;21.50;99.90;;;;;;492349;241;28875;-80
2023/07/09 06:19:10;;;;;;;6.90;5.30;;;21.70;99.90;;;;;;492339;241;28816;-79
2023/07/09 06:21:12;;;;;;;6.63;4.83;;;21.80;99.90;;;;;;492343;241;29374;-80
2023/07/09 06:23:12;;;;;;;10.60;4.90;;;21.80;99.90;;;;;;492274;241;29518;-80
2023/07/09 06:25:13;;;;;;;4.67;4.13;;;22.00;99.90;;;;;;492390;241;29258;-79
2023/07/09 06:27:15;;;;;;;5.80;4.77;;;22.00;99.90;;;;;;492367;241;28934;-79
2023/07/09 06:29:16;;;;;;;14.33;5.20;;;22.20;99.90;;;;;;492324;241;28888;-80
2023/07/09 06:31:18;;;;;;;5.93;4.37;;;22.20;99.90;;;;;;492302;241;28844;-80
2023/07/09 06:33:18;;;;;;;4.60;4.10;;;22.30;99.90;;;;;;492239;241;28845;-80
2023/07/09 06:35:20;;;;;;;6.93;4.57;;;22.40;99.90;;;;;;492310;241;28890;-80
2023/07/09 06:37:21;;;;;;;6.90;5.13;;;22.40;99.90;;;;;;492354;241;28885;-80
2023/07/09 06:39:22;;;;;;;5.70;4.37;;;22.50;99.90;;;;;;492325;241;28981;-81
2023/07/09 06:41:24;;;;;;;6.60;4.43;;;22.70;99.90;;;;;;492325;241;28846;-80
2023/07/09 06:43:25;;;;;;;5.33;4.47;;;22.80;99.90;;;;;;492340;241;30231;-80
2023/07/09 06:45:26;;;;;;;6.27;4.40;;;22.80;99.90;;;;;;492338;241;29400;-79
2023/07/09 06:47:27;;;;;;;5.47;4.20;;;22.90;99.90;;;;;;492345;241;29349;-81
2023/07/09 06:49:28;;;;;;;6.60;4.37;;;23.10;99.90;;;;;;492325;241;29260;-81
2023/07/09 06:51:30;;;;;;;7.07;4.23;;;23.20;99.90;;;;;;492330;241;28966;-80
2023/07/09 06:53:31;;;;;;;7.77;4.77;;;23.30;99.90;;;;;;492298;241;28866;-80
2023/07/09 06:55:32;;;;;;;5.33;4.40;;;23.40;99.90;;;;;;492345;241;28845;-80
2023/07/09 06:57:34;;;;;;;6.77;5.07;;;23.70;99.90;;;;;;492330;241;28973;-80
2023/07/09 06:59:35;;;;;;;4.97;4.47;;;24.00;99.90;;;;;;492323;241;28859;-80
2023/07/09 07:01:36;;;;;;;6.67;4.70;;;24.10;99.90;;;;;;492310;241;28937;-81
2023/07/09 07:03:37;;;;;;;5.27;4.40;;;24.30;99.90;;;;;;492303;241;28890;-80
2023/07/09 07:05:40;;;;;;;5.40;4.50;;;24.40;99.90;;;;;;492330;241;28884;-81
2023/07/09 07:07:40;;;;;;;7.93;4.53;;;24.40;99.90;;;;;;492259;241;28842;-79
2023/07/09 07:09:41;;;;;;;7.20;4.63;;;24.50;99.90;;;;;;492301;241;29314;-80
2023/07/09 07:11:42;;;;;;;4.90;4.40;;;24.40;99.90;;;;;;492308;241;29340;-80
2023/07/09 07:13:43;;;;;;;5.83;3.97;;;24.40;99.90;;;;;;492303;241;30056;-80
2023/07/09 07:15:45;;;;;;;5.40;3.93;;;24.60;99.90;;;;;;492343;241;28796;-80
2023/07/09 07:17:46;;;;;;;6.70;4.83;;;24.80;99.90;;;;;;492312;241;28838;-80
2023/07/09 07:19:47;;;;;;;5.30;4.37;;;24.90;99.90;;;;;;492311;241;28803;-81
2023/07/09 07:21:48;;;;;;;7.80;4.60;;;25.00;99.90;;;;;;492325;241;28842;-81
2023/07/09 07:23:50;;;;;;;5.27;4.27;;;25.10;99.90;;;;;;492243;241;29005;-81
2023/07/09 07:25:51;;;;;;;5.10;4.37;;;25.20;99.90;;;;;;492342;241;28856;-80
2023/07/09 07:27:53;;;;;;;8.53;4.40;;;25.50;99.90;;;;;;492221;241;28882;-80
2023/07/09 07:29:54;;;;;;;8.77;4.13;;;25.50;99.90;;;;;;492303;241;28811;-80
2023/07/09 07:31:55;;;;;;;4.67;4.03;;;25.60;99.90;;;;;;492232;241;28833;-80
2023/07/09 07:33:56;;;;;;;5.60;3.87;;;25.70;99.90;;;;;;492287;241;30368;-80
2023/07/09 07:35:57;;;;;;;4.53;3.80;;;25.80;99.90;;;;;;492338;241;29362;-81
2023/07/09 07:37:58;;;;;;;4.50;4.10;;;25.80;99.90;;;;;;476541;240;29299;-80
2023/07/09 07:40:00;;;;;;;6.13;4.40;;;25.90;99.90;;;;;;466636;255;28911;-81
2023/07/09 07:42:01;;;;;;;8.20;4.57;;;25.80;99.90;;;;;;469573;253;28989;-80
2023/07/09 07:44:02;;;;;;;6.60;4.40;;;26.10;99.90;;;;;;467382;252;28887;-80
2023/07/09 07:46:03;;;;;;;6.30;4.13;;;26.00;99.90;;;;;;475823;250;28860;-80
2023/07/09 07:48:05;;;;;;;5.70;4.10;;;26.00;99.90;;;;;;466610;255;28889;-81
2023/07/09 07:50:06;;;;;;;8.17;4.43;;;26.20;99.90;;;;;;475794;250;28864;-81
2023/07/09 07:52:07;;;;;;;6.33;3.70;;;26.40;99.90;;;;;;466594;255;29009;-80
2023/07/09 07:54:11;;;;;;;4.70;3.87;;;26.30;99.90;;;;;;469524;253;28795;-80
2023/07/09 07:56:12;;;;;;;7.20;4.13;;;26.40;99.90;;;;;;467378;254;28888;-80
2023/07/09 07:58:14;;;;;;;4.60;4.10;;;26.50;99.90;;;;;;475750;250;29381;-85
2023/07/09 08:00:15;;;;;;;5.10;3.97;;;26.50;99.90;;;;;;466598;255;29496;-80
2023/07/09 08:02:16;;;;;;;4.50;4.10;;;26.60;99.90;;;;;;469551;253;29358;-80
2023/07/09 08:04:17;;;;;;;7.30;3.83;;;26.70;99.90;;;;;;467381;254;28945;-80
2023/07/09 08:06:19;;;;;;;5.37;4.13;;;26.80;99.90;;;;;;475764;250;28749;-81
2023/07/09 08:08:20;;;;;;;7.00;4.03;;;27.00;99.90;;;;;;466571;255;28903;-81
2023/07/09 08:10:21;;;;;;;8.20;3.97;;;26.90;99.90;;;;;;469547;252;28998;-82
2023/07/09 08:12:22;;;;;;;7.87;4.67;;;26.90;99.90;;;;;;467382;253;28854;-81
2023/07/09 08:14:24;;;;;;;11.70;4.00;;;26.90;99.90;;;;;;475765;250;28825;-81
2023/07/09 08:16:25;;;;;;;9.30;4.20;;;27.10;99.90;;;;;;466583;255;29021;-80
2023/07/09 08:18:26;;;;;;;4.40;3.97;;;27.00;99.90;;;;;;469543;253;29032;-81
2023/07/09 08:20:27;;;;;;;5.23;3.73;;;27.00;99.90;;;;;;467420;254;28887;-81
2023/07/09 08:22:29;;;;;;;6.77;4.50;;;27.10;99.90;;;;;;475813;250;29299;-80
2023/07/09 08:24:30;;;;;;;6.03;4.07;;;27.20;99.90;;;;;;466618;255;29379;-80
2023/07/09 08:26:32;;;;;;;5.53;4.03;;;27.20;99.90;;;;;;475800;250;29371;-81
2023/07/09 08:28:32;;;;;;;6.50;4.47;;;27.20;99.90;;;;;;466580;255;28923;-81
2023/07/09 08:30:34;;;;;;;7.73;4.20;;;27.10;99.90;;;;;;469581;253;28911;-81
2023/07/09 08:32:35;;;;;;;8.10;4.27;;;27.20;99.90;;;;;;467414;253;28814;-80
2023/07/09 08:34:36;;;;;;;4.30;3.77;;;27.20;99.90;;;;;;475784;250;28826;-81
2023/07/09 08:36:38;;;;;;;5.50;4.03;;;27.20;99.90;;;;;;466622;255;28909;-81
2023/07/09 08:38:39;;;;;;;11.13;4.40;;;27.40;99.90;;;;;;469573;253;28942;-81
2023/07/09 08:40:41;;;;;;;6.63;4.23;;;27.60;99.90;;;;;;467389;254;28900;-81
2023/07/09 08:42:41;;;;;;;4.87;4.40;;;27.80;99.90;;;;;;475787;250;28887;-81
2023/07/09 08:44:42;;;;;;;5.60;4.73;;;27.80;99.90;;;;;;466621;255;29410;-81
2023/07/09 08:46:44;;;;;;;7.20;4.60;;;27.70;99.90;;;;;;469537;253;29374;-81
2023/07/09 08:48:45;;;;;;;7.47;4.10;;;27.80;99.90;;;;;;467406;254;29532;-81
2023/07/09 08:50:46;;;;;;;4.47;3.50;;;27.70;99.90;;;;;;475816;249;29535;-80
2023/07/09 08:52:47;;;;;;;7.17;4.50;;;27.70;99.90;;;;;;466632;255;28965;-80
2023/07/09 08:54:49;;;;;;;5.73;4.13;;;27.80;99.90;;;;;;469585;253;29042;-81
2023/07/09 08:56:50;;;;;;;5.70;4.60;;;27.90;99.90;;;;;;467430;253;28876;-81
2023/07/09 08:58:51;;;;;;;13.80;4.87;;;27.90;99.90;;;;;;475816;250;28780;-82
2023/07/09 09:00:53;;;;;;;5.90;4.67;;;28.20;99.10;;;;;;466624;255;28934;-81
2023/07/09 09:02:54;;;;;;;7.77;5.10;;;28.20;99.60;;;;;;469607;253;28901;-80
2023/07/09 09:04:55;;;;;;;7.33;4.70;;;28.20;99.00;;;;;;467425;254;28838;-81
2023/07/09 09:06:56;;;;;;;8.93;4.63;;;28.30;99.60;;;;;;475810;250;28932;-80
2023/07/09 09:08:58;;;;;;;4.40;4.00;;;28.70;98.20;;;;;;466599;255;29409;-81
2023/07/09 09:10:59;;;;;;;6.43;4.13;;;28.80;98.20;;;;;;469551;253;30110;-81
2023/07/09 09:13:00;;;;;;;6.83;3.93;;;28.70;98.30;;;;;;467415;254;29444;-81
2023/07/09 09:15:01;;;;;;;7.23;4.13;;;28.70;98.10;;;;;;475825;250;29284;-81
2023/07/09 09:17:02;;;;;;;7.00;4.07;;;28.60;97.60;;;;;;466593;255;28926;-81
2023/07/09 09:19:04;;;;;;;5.20;4.30;;;28.70;97.70;;;;;;469527;253;29030;-81
2023/07/09 09:21:05;;;;;;;7.70;4.10;;;28.80;98.00;;;;;;467382;254;28789;-81
2023/07/09 09:23:06;;;;;;;11.03;4.50;;;28.70;97.50;;;;;;475807;250;28840;-80
2023/07/09 09:25:07;;;;;;;10.53;4.50;;;28.70;97.70;;;;;;466605;255;29031;-81
2023/07/09 09:27:09;;;;;;;5.60;4.37;;;28.90;97.60;;;;;;469545;253;28904;-81
2023/07/09 09:29:10;;;;;;;7.77;4.40;;;29.00;96.70;;;;;;467358;254;29011;-81
2023/07/09 09:31:11;;;;;;;5.90;4.33;;;29.00;95.90;;;;;;475708;250;28782;-81
2023/07/09 09:33:13;;;;;;;7.33;4.40;;;29.00;96.10;;;;;;466604;255;29574;-81
2023/07/09 09:35:14;;;;;;;5.20;3.90;;;29.00;95.90;;;;;;471835;250;36289;-81
2023/07/09 09:37:15;;;;;;;7.20;3.93;;;28.80;96.40;;;;;;466588;255;27970;-81
2023/07/09 09:39:16;;;;;;;4.87;3.90;;;29.10;96.90;;;;;;475769;250;28789;-80
2023/07/09 09:41:17;;;;;;;6.07;3.87;;;29.20;95.90;;;;;;466608;255;28855;-81
2023/07/09 09:43:19;;;;;;;12.10;3.90;;;29.10;95.20;;;;;;475811;250;28776;-81
2023/07/09 09:45:20;;;;;;;11.40;4.70;;;29.10;95.60;;;;;;466616;255;28906;-81
2023/07/09 09:47:23;;;;;;;5.93;4.20;;;29.30;94.90;;;;;;469575;253;28942;-81
2023/07/09 09:49:22;;;;;;;4.90;4.13;;;29.30;94.20;;;;;;467383;254;28937;-81
2023/07/09 09:51:24;;;;;;;6.60;4.07;;;29.30;95.10;;;;;;475797;250;28812;-81
2023/07/09 09:53:25;;;;;;;5.10;3.60;;;29.40;94.90;;;;;;466603;255;28912;-81
2023/07/09 09:55:26;;;;;;;5.57;4.10;;;29.40;93.90;;;;;;469524;253;29426;-81
2023/07/09 09:57:27;;;;;;;7.03;4.20;;;29.60;94.10;;;;;;467394;253;29422;-81
2023/07/09 09:59:29;;;;;;;6.07;3.57;;;29.60;94.20;;;;;;475782;250;29289;-81
2023/07/09 10:01:30;;;;;;;5.73;3.50;;;29.70;94.00;;;;;;466610;255;28970;-81
2023/07/09 10:03:31;;;;;;;11.00;4.50;;;29.90;94.10;;;;;;475785;250;28860;-81
2023/07/09 10:05:33;;;;;;;7.77;4.07;;;29.90;93.60;;;;;;466642;255;29017;-80
2023/07/09 10:07:34;;;;;;;7.87;4.53;;;29.80;93.70;;;;;;469591;253;28880;-82
2023/07/09 10:09:35;;;;;;;4.00;3.57;;;29.80;93.00;;;;;;467412;254;28830;-81
2023/07/09 10:11:36;;;;;;;6.07;3.93;;;29.80;93.00;;;;;;475801;250;28848;-81
2023/07/09 10:13:37;;;;;;;9.90;4.10;;;29.70;92.50;;;;;;466650;255;28987;-81
2023/07/09 10:15:39;;;;;;;9.57;4.90;;;29.90;92.90;;;;;;475815;250;28900;-81
2023/07/09 10:17:40;;;;;;;5.00;3.93;;;30.10;93.10;;;;;;466618;255;28878;-81
2023/07/09 10:19:41;;;;;;;6.50;4.07;;;30.10;92.50;;;;;;475777;250;29297;-81
2023/07/09 10:21:42;;;;;;;6.13;4.17;;;30.10;92.80;;;;;;466629;255;29360;-81
2023/07/09 10:23:44;;;;;;;5.90;3.80;;;30.10;93.00;;;;;;469536;253;29296;-81
2023/07/09 10:25:45;;;;;;;6.33;3.73;;;30.10;91.90;;;;;;467406;254;28917;-82
2023/07/09 10:27:46;;;;;;;4.73;4.07;;;30.20;92.20;;;;;;475817;250;28810;-80
2023/07/09 10:29:48;;;;;;;5.00;3.87;;;30.50;91.20;;;;;;466603;255;28945;-81